createdAt,value
2016-07-18T07:54:51.237Z,1011.22
2016-07-18T07:55:51.254Z,1011.18
2016-07-18T07:56:51.275Z,1011.26
2016-07-18T07:57:51.295Z,1011.23
2016-07-18T07:58:51.316Z,1011.18
2016-07-18T07:59:51.332Z,1011.18
2016-07-18T08:00:51.359Z,1011.2
2016-07-18T08:01:51.371Z,1011.19
2016-07-18T08:02:51.410Z,1011.2
2016-07-18T08:03:51.412Z,1011.21
2016-07-18T08:04:51.429Z,1011.2
2016-07-18T08:05:51.451Z,1011.24
2016-07-18T08:06:51.471Z,1011.22
2016-07-18T08:07:51.491Z,1011.22
2016-07-18T08:08:51.664Z,1011.2
2016-07-18T08:09:51.530Z,1011.16
2016-07-18T08:10:51.549Z,1011.17
2016-07-18T08:11:51.570Z,1011.19
2016-07-18T08:12:51.590Z,1011.2
2016-07-18T08:13:51.609Z,1011.15
2016-07-18T08:14:51.629Z,1011.23
2016-07-18T08:15:51.648Z,1011.16
2016-07-18T08:16:51.669Z,1011.15
2016-07-18T08:17:51.688Z,1011.14
2016-07-18T08:18:51.707Z,1011.21
2016-07-18T08:19:51.726Z,1011.19
2016-07-18T08:20:51.745Z,1011.15
2016-07-18T08:21:51.764Z,1011.11
2016-07-18T08:22:51.783Z,1011.19
2016-07-18T08:23:51.801Z,1011.21
2016-07-18T08:24:51.820Z,1011.2
2016-07-18T08:25:51.838Z,1011.16
2016-07-18T08:26:51.857Z,1011.09
2016-07-18T08:27:51.876Z,1011.1
2016-07-18T08:28:51.894Z,1011.07
2016-07-18T08:29:51.914Z,1011.12
2016-07-18T08:30:51.930Z,1011.08
2016-07-18T08:31:51.950Z,1011.08
2016-07-18T08:32:51.967Z,1011.06
2016-07-18T08:33:51.987Z,1011.12
2016-07-18T08:34:52.005Z,1011.12
2016-07-18T08:35:52.023Z,1011.07
2016-07-18T08:36:52.044Z,1011.06
2016-07-18T08:37:52.060Z,1011.06
2016-07-18T08:38:52.079Z,1011.11
2016-07-18T08:39:52.097Z,1011.07
2016-07-18T08:40:52.114Z,1011.05
2016-07-18T08:41:52.133Z,1011.06
2016-07-18T08:42:52.152Z,1011.05
2016-07-18T08:43:52.171Z,1011.08
2016-07-18T08:44:52.190Z,1011.04
2016-07-18T08:45:52.208Z,1011.07
2016-07-18T08:46:52.227Z,1011.08
2016-07-18T08:47:52.247Z,1011.02
2016-07-18T08:48:52.264Z,1011.02
2016-07-18T08:49:52.283Z,1011.03
2016-07-18T08:50:52.302Z,1011.03
2016-07-18T08:51:52.319Z,1011.01
2016-07-18T08:52:52.350Z,1011.08
2016-07-18T08:53:52.357Z,1011.09
2016-07-18T08:54:52.377Z,1011.08
2016-07-18T08:55:52.395Z,1011.08
2016-07-18T08:56:52.412Z,1011.07
2016-07-18T08:57:52.433Z,1011.08
2016-07-18T08:58:52.450Z,1011.04
2016-07-18T08:59:52.469Z,1011.01
2016-07-18T09:00:52.487Z,1011.04
2016-07-18T09:01:52.506Z,1011.06
2016-07-18T09:02:52.525Z,1011.02
2016-07-18T09:03:52.543Z,1011.02
2016-07-18T09:04:52.562Z,1011.04
2016-07-18T09:05:52.580Z,1011.03
2016-07-18T09:06:52.598Z,1011.03
2016-07-18T09:07:52.615Z,1011.04
2016-07-18T09:08:52.635Z,1011
2016-07-18T09:09:52.652Z,1010.99
2016-07-18T09:10:52.672Z,1011
2016-07-18T09:11:52.689Z,1011.04
2016-07-18T09:12:52.709Z,1011.03
2016-07-18T09:13:52.725Z,1011.07
2016-07-18T09:14:52.744Z,1011.06
2016-07-18T09:15:52.763Z,1011.1
2016-07-18T09:16:52.780Z,1011.05
2016-07-18T09:17:52.798Z,1011.06
2016-07-18T09:18:52.817Z,1011.04
2016-07-18T09:19:52.835Z,1011.02
2016-07-18T09:20:52.856Z,1011.05
2016-07-18T09:21:52.873Z,1011.08
2016-07-18T09:22:52.890Z,1011.07
2016-07-18T09:23:52.909Z,1011.08
2016-07-18T09:24:52.929Z,1011.11
2016-07-18T09:25:52.945Z,1011.08
2016-07-18T09:26:52.964Z,1011.08
2016-07-18T09:27:52.982Z,1011.1
2016-07-18T09:28:53.003Z,1011.1
2016-07-18T09:29:53.019Z,1011.08
2016-07-18T09:30:53.039Z,1011.09
2016-07-18T09:31:53.059Z,1011.13
2016-07-18T09:32:53.075Z,1011.13
2016-07-18T09:33:53.095Z,1011.14
2016-07-18T09:34:53.112Z,1011.13
2016-07-18T09:35:53.146Z,1011.11
2016-07-18T09:36:53.149Z,1011.15
2016-07-18T09:37:53.171Z,1011.16
2016-07-18T09:38:53.189Z,1011.13
2016-07-18T09:39:53.207Z,1011.14
2016-07-18T09:40:53.226Z,1011.11
2016-07-18T09:41:53.245Z,1011.12
2016-07-18T09:42:53.263Z,1011.11
2016-07-18T09:43:53.282Z,1011.04
2016-07-18T09:44:53.299Z,1011.05
2016-07-18T09:45:53.318Z,1011.03
2016-07-18T09:46:53.339Z,1011
2016-07-18T09:47:53.356Z,1011.03
2016-07-18T09:48:53.373Z,1011.05
2016-07-18T09:49:53.392Z,1011.04
2016-07-18T09:50:53.411Z,1011.02
2016-07-18T09:51:53.429Z,1011.01
2016-07-18T09:52:53.448Z,1011
2016-07-18T09:53:53.467Z,1011.01
2016-07-18T09:54:53.485Z,1011.03
2016-07-18T09:55:53.504Z,1011.01
2016-07-18T09:56:53.522Z,1010.99
2016-07-18T09:57:53.541Z,1011.06
2016-07-18T09:58:53.558Z,1011.07
2016-07-18T09:59:53.578Z,1011.02
2016-07-18T10:00:53.596Z,1011.03
2016-07-18T10:01:53.613Z,1011.09
2016-07-18T10:02:53.632Z,1011.11
2016-07-18T10:03:53.652Z,1011.06
2016-07-18T10:04:53.670Z,1011.09
2016-07-18T10:05:53.689Z,1011.04
2016-07-18T10:06:53.707Z,1011.02
2016-07-18T10:07:53.725Z,1011
2016-07-18T10:08:53.742Z,1011
2016-07-18T10:09:53.761Z,1011.04
2016-07-18T10:10:53.778Z,1011.08
2016-07-18T10:11:53.800Z,1011.06
2016-07-18T10:12:53.816Z,1011.09
2016-07-18T10:13:53.835Z,1011.08
2016-07-18T10:14:53.855Z,1011.04
2016-07-18T10:15:53.872Z,1011.05
2016-07-18T10:16:53.890Z,1011.06
2016-07-18T10:17:53.909Z,1011.03
2016-07-18T10:18:53.927Z,1011.04
2016-07-18T10:19:53.946Z,1011.06
2016-07-18T10:20:53.963Z,1011.07
2016-07-18T10:21:53.982Z,1011.09
2016-07-18T10:22:54.000Z,1011.09
2016-07-18T10:23:54.018Z,1011.08
2016-07-18T10:24:54.039Z,1011.07
2016-07-18T10:25:54.056Z,1011.03
2016-07-18T10:26:54.074Z,1011
2016-07-18T10:27:54.093Z,1010.97
2016-07-18T10:28:54.111Z,1010.99
2016-07-18T10:29:54.128Z,1010.97
2016-07-18T10:30:54.149Z,1011.01
2016-07-18T10:31:54.163Z,1011.02
2016-07-18T10:32:54.184Z,1011.04
2016-07-18T10:33:54.203Z,1011.09
2016-07-18T10:34:54.220Z,1011.01
2016-07-18T10:35:54.240Z,1010.96
2016-07-18T10:36:54.259Z,1011
2016-07-18T10:37:54.276Z,1010.98
2016-07-18T10:38:54.293Z,1010.97
2016-07-18T10:39:54.313Z,1010.97
2016-07-18T10:40:54.330Z,1010.94
2016-07-18T10:41:54.350Z,1010.98
2016-07-18T10:42:54.368Z,1010.96
2016-07-18T10:43:54.386Z,1010.98
2016-07-18T10:44:54.403Z,1010.99
2016-07-18T10:45:54.422Z,1011
2016-07-18T10:46:54.440Z,1010.99
2016-07-18T10:47:54.461Z,1010.96
2016-07-18T10:48:54.478Z,1011
2016-07-18T10:49:54.495Z,1010.98
2016-07-18T10:50:54.514Z,1011.02
2016-07-18T10:51:54.533Z,1011.02
2016-07-18T10:52:54.550Z,1011.05
2016-07-18T10:53:54.569Z,1011.05
2016-07-18T10:54:54.587Z,1011.05
2016-07-18T10:55:54.607Z,1011.05
2016-07-18T10:56:54.623Z,1011.02
2016-07-18T10:57:54.642Z,1011.03
2016-07-18T10:58:54.661Z,1011.02
2016-07-18T10:59:54.680Z,1011.01
2016-07-18T11:00:54.698Z,1011.01
2016-07-18T11:01:54.714Z,1010.97
2016-07-18T11:02:54.735Z,1010.95
2016-07-18T11:03:54.752Z,1010.9
2016-07-18T11:04:54.777Z,1010.93
2016-07-18T11:05:54.798Z,1010.94
2016-07-18T11:06:54.813Z,1010.91
2016-07-18T11:07:54.827Z,1010.89
2016-07-18T11:08:54.844Z,1010.92
2016-07-18T11:09:54.863Z,1010.93
2016-07-18T11:10:54.883Z,1010.92
2016-07-18T11:11:54.899Z,1010.94
2016-07-18T11:12:54.919Z,1010.92
2016-07-18T11:13:54.936Z,1010.95
2016-07-18T11:14:54.955Z,1010.93
2016-07-18T11:15:54.977Z,1010.95
2016-07-18T11:16:54.992Z,1010.91
2016-07-18T11:17:55.010Z,1010.92
2016-07-18T11:18:55.026Z,1010.88
2016-07-18T11:19:55.046Z,1010.89
2016-07-18T11:20:55.063Z,1010.85
2016-07-18T11:21:55.083Z,1010.81
2016-07-18T11:22:55.102Z,1010.78
2016-07-18T11:23:55.119Z,1010.79
2016-07-18T11:24:55.137Z,1010.75
2016-07-18T11:25:55.155Z,1010.81
2016-07-18T11:26:55.173Z,1010.81
2016-07-18T11:27:55.191Z,1010.85
2016-07-18T11:28:55.211Z,1010.83
2016-07-18T11:29:55.230Z,1010.82
2016-07-18T11:30:55.248Z,1010.81
2016-07-18T11:31:55.265Z,1010.8
2016-07-18T11:32:55.285Z,1010.78
2016-07-18T11:33:55.301Z,1010.78
2016-07-18T11:34:55.322Z,1010.78
2016-07-18T11:35:55.338Z,1010.77
2016-07-18T11:36:55.360Z,1010.73
2016-07-18T11:37:55.375Z,1010.73
2016-07-18T11:38:55.394Z,1010.7
2016-07-18T11:39:55.410Z,1010.68
2016-07-18T11:40:55.429Z,1010.7
2016-07-18T11:41:55.447Z,1010.7
2016-07-18T11:42:55.467Z,1010.74
2016-07-18T11:43:55.483Z,1010.7
2016-07-18T11:44:55.504Z,1010.71
2016-07-18T11:45:55.522Z,1010.66
2016-07-18T11:46:55.540Z,1010.7
2016-07-18T11:47:55.557Z,1010.71
2016-07-18T11:48:55.577Z,1010.78
2016-07-18T11:49:55.599Z,1010.69
2016-07-18T11:50:55.613Z,1010.72
2016-07-18T11:51:55.631Z,1010.65
2016-07-18T11:52:55.651Z,1010.64
2016-07-18T11:53:55.668Z,1010.67
2016-07-18T11:54:55.687Z,1010.69
2016-07-18T11:55:55.703Z,1010.63
2016-07-18T11:56:55.722Z,1010.61
2016-07-18T11:57:55.740Z,1010.64
2016-07-18T11:58:55.758Z,1010.65
2016-07-18T11:59:55.776Z,1010.7
2016-07-18T12:00:55.795Z,1010.66
2016-07-18T12:01:55.815Z,1010.67
2016-07-18T12:02:55.831Z,1010.7
2016-07-18T12:03:55.852Z,1010.72
2016-07-18T12:04:55.868Z,1010.7
2016-07-18T12:05:55.886Z,1010.69
2016-07-18T12:06:55.905Z,1010.67
2016-07-18T12:07:55.923Z,1010.66
2016-07-18T12:08:55.943Z,1010.66
2016-07-18T12:09:55.958Z,1010.61
2016-07-18T12:10:55.978Z,1010.67
2016-07-18T12:11:55.998Z,1010.63
2016-07-18T12:12:56.015Z,1010.61
2016-07-18T12:13:56.033Z,1010.63
2016-07-18T12:14:56.049Z,1010.66
2016-07-18T12:15:56.070Z,1010.7
2016-07-18T12:16:56.087Z,1010.69
2016-07-18T12:17:56.106Z,1010.68
2016-07-18T12:18:56.125Z,1010.69
2016-07-18T12:19:56.147Z,1010.65
2016-07-18T12:20:56.160Z,1010.64
2016-07-18T12:21:56.179Z,1010.66
2016-07-18T12:22:56.196Z,1010.65
2016-07-18T12:23:56.216Z,1010.66
2016-07-18T12:24:56.232Z,1010.65
2016-07-18T12:25:56.252Z,1010.6
2016-07-18T12:26:56.270Z,1010.64
2016-07-18T12:27:56.289Z,1010.64
2016-07-18T12:28:56.304Z,1010.64
2016-07-18T12:29:56.327Z,1010.61
2016-07-18T12:30:56.342Z,1010.6
2016-07-18T12:31:56.360Z,1010.62
2016-07-18T12:32:56.380Z,1010.59
2016-07-18T12:33:56.399Z,1010.56
2016-07-18T12:34:56.417Z,1010.56
2016-07-18T12:35:56.433Z,1010.6
2016-07-18T12:36:56.464Z,1010.59
2016-07-18T12:37:56.471Z,1010.63
2016-07-18T12:38:56.492Z,1010.64
2016-07-18T12:39:56.518Z,1010.68
2016-07-18T12:40:56.525Z,1010.65
2016-07-18T12:41:56.545Z,1010.65
2016-07-18T12:42:56.562Z,1010.59
2016-07-18T12:43:56.581Z,1010.62
2016-07-18T12:44:56.601Z,1010.56
2016-07-18T12:45:56.617Z,1010.53
2016-07-18T12:46:56.634Z,1010.54
2016-07-18T12:47:56.655Z,1010.52
2016-07-18T12:48:56.672Z,1010.53
2016-07-18T12:49:56.747Z,1010.54
2016-07-18T12:50:56.710Z,1010.55
2016-07-18T12:51:56.727Z,1010.51
2016-07-18T12:52:56.750Z,1010.52
2016-07-18T12:53:56.763Z,1010.49
2016-07-18T12:54:56.783Z,1010.47
2016-07-18T12:55:56.800Z,1010.49
2016-07-18T12:56:56.821Z,1010.47
2016-07-18T12:57:56.837Z,1010.46
2016-07-18T12:58:56.855Z,1010.44
2016-07-18T12:59:56.883Z,1010.53
2016-07-18T13:00:56.892Z,1010.43
2016-07-18T13:01:56.910Z,1010.44
2016-07-18T13:02:56.928Z,1010.45
2016-07-18T13:03:56.946Z,1010.47
2016-07-18T13:04:56.965Z,1010.46
2016-07-18T13:05:56.984Z,1010.53
2016-07-18T13:06:57.001Z,1010.47
2016-07-18T13:07:57.020Z,1010.46
2016-07-18T13:08:57.038Z,1010.44
2016-07-18T13:09:57.055Z,1010.43
2016-07-18T13:10:57.074Z,1010.42
2016-07-18T13:11:57.092Z,1010.42
2016-07-18T13:12:57.110Z,1010.38
2016-07-18T13:13:57.129Z,1010.42
2016-07-18T13:14:57.150Z,1010.44
2016-07-18T13:15:57.165Z,1010.41
2016-07-18T13:16:57.183Z,1010.42
2016-07-18T13:17:57.200Z,1010.4
2016-07-18T13:18:57.220Z,1010.35
2016-07-18T13:19:57.238Z,1010.37
2016-07-18T13:20:57.258Z,1010.39
2016-07-18T13:21:57.274Z,1010.34
2016-07-18T13:22:57.293Z,1010.42
2016-07-18T13:23:57.312Z,1010.33
2016-07-18T13:24:57.329Z,1010.37
2016-07-18T13:25:57.350Z,1010.32
2016-07-18T13:26:57.366Z,1010.38
2016-07-18T13:27:57.384Z,1010.39
2016-07-18T13:28:57.412Z,1010.34
2016-07-18T13:29:57.421Z,1010.34
2016-07-18T13:30:57.438Z,1010.28
2016-07-18T13:31:57.461Z,1010.26
2016-07-18T13:32:57.477Z,1010.3
2016-07-18T13:33:57.493Z,1010.32
2016-07-18T13:34:57.512Z,1010.35
2016-07-18T13:35:57.530Z,1010.34
2016-07-18T13:36:57.549Z,1010.38
2016-07-18T13:37:57.567Z,1010.38
2016-07-18T13:38:57.584Z,1010.4
2016-07-18T13:39:57.603Z,1010.4
2016-07-18T13:40:57.622Z,1010.37
2016-07-18T13:41:57.638Z,1010.33
2016-07-18T13:42:57.658Z,1010.3
2016-07-18T13:43:57.677Z,1010.27
2016-07-18T13:44:57.694Z,1010.3
2016-07-18T13:45:57.713Z,1010.28
2016-07-18T13:46:57.731Z,1010.27
2016-07-18T13:47:57.748Z,1010.3
2016-07-18T13:48:57.767Z,1010.33
2016-07-18T13:49:57.786Z,1010.33
2016-07-18T13:50:57.803Z,1010.36
2016-07-18T13:51:57.821Z,1010.34
2016-07-18T13:52:57.839Z,1010.27
2016-07-18T13:53:57.858Z,1010.28
2016-07-18T13:54:57.877Z,1010.3
2016-07-18T13:55:57.894Z,1010.32
2016-07-18T13:56:57.912Z,1010.31
2016-07-18T13:57:57.931Z,1010.32
2016-07-18T13:58:57.948Z,1010.31
2016-07-18T13:59:57.967Z,1010.26
2016-07-18T14:00:57.987Z,1010.23
2016-07-18T14:01:58.004Z,1010.2
2016-07-18T14:02:58.023Z,1010.26
2016-07-18T14:03:58.038Z,1010.32
2016-07-18T14:04:58.058Z,1010.26
2016-07-18T14:05:58.077Z,1010.26
2016-07-18T14:06:58.094Z,1010.26
2016-07-18T14:07:58.112Z,1010.29
2016-07-18T14:08:58.130Z,1010.27
2016-07-18T14:09:58.149Z,1010.25
2016-07-18T14:10:58.167Z,1010.28
2016-07-18T14:11:58.192Z,1010.26
2016-07-18T14:12:58.206Z,1010.22
2016-07-18T14:13:58.221Z,1010.19
2016-07-18T14:14:58.241Z,1010.19
2016-07-18T14:15:58.259Z,1010.23
2016-07-18T14:16:58.276Z,1010.2
2016-07-18T14:17:58.293Z,1010.24
2016-07-18T14:18:58.315Z,1010.21
2016-07-18T14:19:58.332Z,1010.18
2016-07-18T14:20:58.351Z,1010.18
2016-07-18T14:21:58.365Z,1010.2
2016-07-18T14:22:58.387Z,1010.23
2016-07-18T14:23:58.406Z,1010.23
2016-07-18T14:24:58.422Z,1010.19
2016-07-18T14:25:58.440Z,1010.22
2016-07-18T14:26:58.460Z,1010.19
2016-07-18T14:27:58.479Z,1010.12
2016-07-18T14:28:58.494Z,1010.13
2016-07-18T14:29:58.513Z,1010.13
2016-07-18T14:30:58.531Z,1010.09
2016-07-18T14:31:58.549Z,1010.08
2016-07-18T14:32:58.567Z,1010.13
2016-07-18T14:33:58.586Z,1010.09
2016-07-18T14:34:58.605Z,1010.09
2016-07-18T14:35:58.622Z,1010.07
2016-07-18T14:36:58.641Z,1010.07
2016-07-18T14:37:58.659Z,1010.09
2016-07-18T14:38:58.678Z,1010.12
2016-07-18T14:39:58.695Z,1010.09
2016-07-18T14:40:58.718Z,1010.11
2016-07-18T14:41:58.733Z,1010.09
2016-07-18T14:42:58.750Z,1010.05
2016-07-18T14:43:58.767Z,1010.09
2016-07-18T14:44:58.787Z,1010.1
2016-07-18T14:45:58.806Z,1010.05
2016-07-18T14:46:58.822Z,1010.1
2016-07-18T14:47:58.842Z,1010.03
2016-07-18T14:48:58.860Z,1010.08
2016-07-18T14:49:58.877Z,1010.01
2016-07-18T14:50:58.895Z,1010.1
2016-07-18T14:51:58.922Z,1010.06
2016-07-18T14:52:58.932Z,1010.05
2016-07-18T14:53:58.949Z,1010.06
2016-07-18T14:54:58.972Z,1010.04
2016-07-18T14:55:58.985Z,1010.04
2016-07-18T14:56:59.004Z,1010.02
2016-07-18T14:57:59.022Z,1010.08
2016-07-18T14:58:59.040Z,1010.12
2016-07-18T14:59:59.060Z,1010.09
2016-07-18T15:00:59.077Z,1010.1
2016-07-18T15:01:59.094Z,1010.06
2016-07-18T15:02:59.113Z,1010.05
2016-07-18T15:03:59.132Z,1010.03
2016-07-18T15:04:59.151Z,1010.01
2016-07-18T15:05:59.169Z,1009.96
2016-07-18T15:06:59.186Z,1009.98
2016-07-18T15:07:59.204Z,1010.02
2016-07-18T15:08:59.221Z,1010
2016-07-18T15:09:59.241Z,1010.02
2016-07-18T15:10:59.260Z,1010
2016-07-18T15:11:59.279Z,1010.02
2016-07-18T15:12:59.295Z,1010.07
2016-07-18T15:13:59.312Z,1010.04
2016-07-18T15:14:59.332Z,1009.97
2016-07-18T15:15:59.350Z,1010.01
2016-07-18T15:16:59.367Z,1010
2016-07-18T15:17:59.388Z,1009.98
2016-07-18T15:18:59.405Z,1009.96
2016-07-18T15:19:59.421Z,1009.96
2016-07-18T15:20:59.439Z,1009.96
2016-07-18T15:21:59.461Z,1009.91
2016-07-18T15:22:59.478Z,1009.94
2016-07-18T15:23:59.495Z,1009.91
2016-07-18T15:24:59.513Z,1009.91
2016-07-18T15:25:59.532Z,1009.92
2016-07-18T15:26:59.548Z,1009.89
2016-07-18T15:27:59.568Z,1009.94
2016-07-18T15:28:59.587Z,1009.92
2016-07-18T15:29:59.604Z,1009.92
2016-07-18T15:30:59.623Z,1009.89
2016-07-18T15:31:59.639Z,1009.93
2016-07-18T15:32:59.659Z,1009.91
2016-07-18T15:33:59.677Z,1009.95
2016-07-18T15:34:59.696Z,1009.92
2016-07-18T15:35:59.713Z,1009.95
2016-07-18T15:36:59.731Z,1009.95
2016-07-18T15:37:59.750Z,1009.91
2016-07-18T15:38:59.766Z,1009.91
2016-07-18T15:39:59.786Z,1009.87
2016-07-18T15:40:59.803Z,1009.91
2016-07-18T15:41:59.820Z,1009.9
2016-07-18T15:42:59.839Z,1009.9
2016-07-18T15:43:59.859Z,1009.91
2016-07-18T15:44:59.877Z,1009.87
2016-07-18T15:45:59.894Z,1009.88
2016-07-18T15:46:59.910Z,1009.86
2016-07-18T15:47:59.930Z,1009.81
2016-07-18T15:48:59.948Z,1009.87
2016-07-18T15:49:59.967Z,1009.81
